Salem, Nebraska
Current Conditions -  °F | °C
As of 12:36 AM on Thursday 29 Jan 2015 (Local Time) from KFNB Reporting Station
Broken Clouds Broken Clouds  
Wind Chill: 39°   Ceiling: 2400
Heat Index: 46°   Visibility: 10mi
Dew Point: 37°   Wind: 17mph
Humidity: 71%   Direction: 330°NNW
Pressure: 29.93"   Gusts: 28mph
Location:  40.08°N, 95.72°W
Report Text: KFNB 290636Z AUTO 33015G24KT 10SM BKN024 08/03 A2993 RMK AO2 PK WND 35028/0618 PRESRR T00780028
Loading
Personal Weather Stations






























Interactive Weather Map New forecast layout! Learn more

10-Day Weather Forecast

Advertisements
Track Severe Weather on mobile